createdAt,value
2018-12-09T00:00:35.592Z,4.67
2018-12-09T00:03:02.797Z,4.20
2018-12-09T00:05:29.296Z,4.43
2018-12-09T00:07:55.532Z,3.80
2018-12-09T00:10:21.803Z,5.27
2018-12-09T00:12:48.113Z,5.80
2018-12-09T00:15:14.398Z,5.50
2018-12-09T00:17:40.624Z,3.17
2018-12-09T00:20:06.900Z,4.47
2018-12-09T00:25:27.174Z,4.30
2018-12-09T00:27:53.286Z,3.50
2018-12-09T00:30:19.462Z,4.17
2018-12-09T00:32:45.722Z,3.30
2018-12-09T00:35:11.968Z,4.87
2018-12-09T00:37:38.321Z,6.90
2018-12-09T00:40:04.736Z,8.50
2018-12-09T00:42:30.951Z,4.20
2018-12-09T00:44:57.211Z,6.83
2018-12-09T00:47:23.530Z,10.70
2018-12-09T00:49:49.896Z,6.73
2018-12-09T00:52:15.995Z,8.90
2018-12-09T00:54:42.194Z,15.23
2018-12-09T00:57:19.453Z,11.67
2018-12-09T00:59:45.850Z,9.40
2018-12-09T01:02:12.319Z,9.67
2018-12-09T01:04:39.079Z,8.27
2018-12-09T01:07:05.622Z,8.53
2018-12-09T01:09:31.776Z,6.73
2018-12-09T01:11:57.940Z,6.73
2018-12-09T01:14:24.295Z,10.27
2018-12-09T01:16:50.601Z,7.53
2018-12-09T01:19:23.566Z,6.30
2018-12-09T01:21:49.846Z,9.87
2018-12-09T01:24:16.260Z,7.03
2018-12-09T01:26:42.375Z,8.00
2018-12-09T01:29:08.581Z,10.07
2018-12-09T01:31:34.814Z,9.93
2018-12-09T01:34:00.999Z,8.70
2018-12-09T01:36:27.479Z,7.63
2018-12-09T01:38:53.576Z,10.40
2018-12-09T01:41:27.015Z,6.40
2018-12-09T01:43:53.199Z,8.20
2018-12-09T01:46:19.333Z,7.57
2018-12-09T01:48:45.631Z,8.37
2018-12-09T01:51:11.867Z,9.73
2018-12-09T01:53:50.344Z,8.00
2018-12-09T01:56:17.603Z,7.13
2018-12-09T01:58:46.328Z,9.00
2018-12-09T02:01:12.605Z,5.77
2018-12-09T02:03:38.789Z,8.20
2018-12-09T02:06:06.006Z,7.67
2018-12-09T02:08:32.267Z,5.70
2018-12-09T02:10:58.901Z,9.83
2018-12-09T02:13:25.054Z,11.77
2018-12-09T02:15:55.563Z,11.03
2018-12-09T02:18:22.913Z,11.37
2018-12-09T02:20:49.202Z,11.83
2018-12-09T02:23:15.571Z,15.70
2018-12-09T02:25:41.989Z,17.53
2018-12-09T02:28:08.187Z,8.63
2018-12-09T02:30:34.439Z,17.57
2018-12-09T02:33:05.549Z,11.07
2018-12-09T02:35:35.678Z,8.87
2018-12-09T02:38:01.885Z,10.20
2018-12-09T02:40:28.042Z,9.63
2018-12-09T02:42:54.253Z,10.67
2018-12-09T02:45:21.620Z,10.37
2018-12-09T02:47:47.770Z,9.97
2018-12-09T02:50:13.946Z,7.57
2018-12-09T02:52:40.175Z,6.30
2018-12-09T02:55:06.403Z,4.63
2018-12-09T02:57:35.898Z,6.17
2018-12-09T03:00:04.223Z,7.10
2018-12-09T03:02:30.495Z,8.20
2018-12-09T03:04:56.776Z,4.67
2018-12-09T03:07:23.176Z,4.70
2018-12-09T03:09:49.302Z,3.67
2018-12-09T03:12:16.584Z,3.30
2018-12-09T03:14:47.420Z,5.80
2018-12-09T03:17:13.590Z,3.47
2018-12-09T03:19:39.751Z,4.37
2018-12-09T03:22:07.061Z,3.57
2018-12-09T03:24:33.318Z,4.83
2018-12-09T03:26:59.562Z,5.00
2018-12-09T03:29:26.343Z,5.70
2018-12-09T03:31:52.459Z,4.97
2018-12-09T03:34:18.566Z,4.97
2018-12-09T03:36:45.080Z,7.83
2018-12-09T03:39:13.448Z,5.50
2018-12-09T03:41:41.723Z,3.00
2018-12-09T03:44:08.114Z,3.17
2018-12-09T03:46:34.503Z,3.20
2018-12-09T03:49:01.086Z,4.13
2018-12-09T03:51:27.470Z,4.70
2018-12-09T03:53:53.788Z,4.13
2018-12-09T03:56:19.926Z,5.80
2018-12-09T03:58:46.099Z,4.77
2018-12-09T04:01:13.614Z,5.70
2018-12-09T04:03:39.875Z,7.70
2018-12-09T04:06:06.019Z,13.53
2018-12-09T04:08:35.918Z,5.87
2018-12-09T04:11:02.145Z,5.33
2018-12-09T04:13:28.268Z,4.20
2018-12-09T04:15:54.847Z,6.57
2018-12-09T04:18:20.967Z,4.70
2018-12-09T04:20:47.029Z,5.67
2018-12-09T04:23:13.214Z,5.57
2018-12-09T04:25:39.536Z,5.47
2018-12-09T04:28:13.790Z,2.53
2018-12-09T04:30:40.027Z,2.57
2018-12-09T04:33:06.330Z,5.80
2018-12-09T04:35:35.677Z,3.43
2018-12-09T04:38:02.035Z,2.57
2018-12-09T04:40:28.667Z,2.60
2018-12-09T04:43:06.975Z,4.20
2018-12-09T04:45:41.083Z,2.77
2018-12-09T04:48:07.393Z,2.60
2018-12-09T04:50:34.197Z,2.60
2018-12-09T04:53:00.423Z,2.70
2018-12-09T04:55:26.618Z,4.27
2018-12-09T04:57:53.037Z,6.03
2018-12-09T05:00:31.483Z,3.40
2018-12-09T05:02:57.675Z,3.07
2018-12-09T05:05:24.016Z,4.27
2018-12-09T05:07:50.207Z,3.87
2018-12-09T05:10:16.287Z,4.33
2018-12-09T05:12:42.490Z,4.80
2018-12-09T05:15:09.250Z,2.77
2018-12-09T05:17:35.454Z,5.27
2018-12-09T05:20:01.837Z,3.23
2018-12-09T05:22:27.964Z,3.50
2018-12-09T05:24:54.161Z,3.37
2018-12-09T05:27:20.569Z,4.47
2018-12-09T05:29:46.866Z,2.90
2018-12-09T05:32:14.026Z,6.03
2018-12-09T05:34:40.238Z,3.30
2018-12-09T05:37:06.606Z,5.97
2018-12-09T05:39:33.900Z,2.53
2018-12-09T05:42:00.392Z,3.57
2018-12-09T05:44:26.497Z,3.87
2018-12-09T05:46:52.716Z,3.73
2018-12-09T05:49:20.045Z,7.13
2018-12-09T05:51:46.334Z,11.33
2018-12-09T05:54:12.946Z,13.47
2018-12-09T05:56:39.040Z,15.97
2018-12-09T05:59:07.403Z,29.67
2018-12-09T06:01:33.577Z,37.47
2018-12-09T06:03:59.810Z,46.10
2018-12-09T06:06:25.932Z,41.20
2018-12-09T06:08:52.014Z,18.60
2018-12-09T06:11:18.445Z,22.70
2018-12-09T06:13:44.774Z,23.73
2018-12-09T06:16:10.975Z,15.23
2018-12-09T06:18:37.361Z,10.83
2018-12-09T06:21:03.745Z,9.53
2018-12-09T06:23:31.298Z,10.53
2018-12-09T06:26:05.287Z,6.90
2018-12-09T06:28:31.403Z,6.43
2018-12-09T06:30:57.619Z,3.70
2018-12-09T06:33:24.017Z,5.00
2018-12-09T06:35:51.702Z,4.47
2018-12-09T06:38:17.909Z,8.47
2018-12-09T06:40:44.184Z,6.87
2018-12-09T06:43:10.325Z,5.27
2018-12-09T06:45:36.444Z,4.27
2018-12-09T06:48:02.828Z,6.33
2018-12-09T06:50:29.057Z,3.83
2018-12-09T06:52:55.193Z,4.90
2018-12-09T06:55:21.372Z,8.50
2018-12-09T06:57:47.555Z,6.10
2018-12-09T07:00:13.671Z,5.47
2018-12-09T07:02:42.097Z,5.07
2018-12-09T07:05:08.576Z,3.77
2018-12-09T07:07:35.561Z,4.77
2018-12-09T07:10:04.794Z,6.57
2018-12-09T07:12:30.991Z,7.30
2018-12-09T07:14:57.196Z,7.83
2018-12-09T07:17:23.215Z,7.37
2018-12-09T07:19:49.525Z,7.40
2018-12-09T07:22:15.814Z,4.70
2018-12-09T07:24:42.012Z,5.77
2018-12-09T07:27:08.301Z,4.93
2018-12-09T07:29:35.383Z,6.63
2018-12-09T07:32:02.039Z,5.70
2018-12-09T07:34:28.225Z,5.30
2018-12-09T07:36:54.536Z,7.73
2018-12-09T07:39:24.170Z,9.67
2018-12-09T07:41:50.419Z,7.60
2018-12-09T07:44:16.638Z,7.63
2018-12-09T07:46:47.790Z,4.33
2018-12-09T07:49:17.821Z,8.10
2018-12-09T07:51:44.225Z,6.13
2018-12-09T07:54:10.546Z,6.17
2018-12-09T07:56:36.542Z,4.63
2018-12-09T07:59:03.615Z,9.60
2018-12-09T08:01:29.963Z,5.97
2018-12-09T08:03:56.101Z,6.13
2018-12-09T08:06:22.497Z,5.67
2018-12-09T08:08:48.579Z,6.33
2018-12-09T08:11:15.044Z,5.03
2018-12-09T08:13:43.509Z,6.33
2018-12-09T08:16:12.773Z,6.93
2018-12-09T08:18:39.172Z,8.03
2018-12-09T08:21:05.535Z,4.73
2018-12-09T08:23:31.608Z,8.37
2018-12-09T08:25:57.901Z,5.07
2018-12-09T08:28:24.240Z,11.13
2018-12-09T08:30:50.415Z,7.80
2018-12-09T08:33:16.616Z,7.93
2018-12-09T08:35:42.926Z,8.30
2018-12-09T08:38:11.260Z,5.70
2018-12-09T08:40:39.586Z,9.27
2018-12-09T08:43:06.861Z,7.53
2018-12-09T08:45:40.840Z,13.60
2018-12-09T08:48:08.043Z,5.27
2018-12-09T08:50:34.963Z,8.63
2018-12-09T08:53:01.117Z,11.57
2018-12-09T08:55:28.218Z,5.00
2018-12-09T08:57:54.592Z,6.70
2018-12-09T09:00:20.957Z,8.23
2018-12-09T09:02:48.101Z,10.40
2018-12-09T09:05:14.327Z,9.10
2018-12-09T09:07:40.559Z,14.13
2018-12-09T09:10:06.819Z,7.20
2018-12-09T09:12:38.276Z,10.50
2018-12-09T09:15:04.689Z,5.77
2018-12-09T09:17:33.014Z,4.70
2018-12-09T09:20:04.898Z,11.00
2018-12-09T09:22:32.116Z,8.10
2018-12-09T09:24:58.501Z,4.67
2018-12-09T09:27:24.830Z,4.87
2018-12-09T09:29:55.602Z,8.50
2018-12-09T09:32:21.964Z,4.90
2018-12-09T09:34:52.050Z,4.20
2018-12-09T09:37:28.365Z,6.07
2018-12-09T09:39:58.599Z,5.27
2018-12-09T09:42:24.806Z,4.87
2018-12-09T09:44:53.191Z,6.47
2018-12-09T09:47:19.454Z,5.57
2018-12-09T09:49:47.589Z,4.33
2018-12-09T09:52:13.751Z,3.50
2018-12-09T09:54:40.890Z,3.73
2018-12-09T09:57:08.941Z,3.77
2018-12-09T09:59:40.015Z,3.10
2018-12-09T10:02:15.575Z,3.10
2018-12-09T10:04:42.789Z,7.10
2018-12-09T10:07:09.221Z,2.10
2018-12-09T10:09:36.395Z,3.60
2018-12-09T10:12:08.096Z,2.80
2018-12-09T10:14:34.290Z,3.87
2018-12-09T10:17:00.710Z,3.00
2018-12-09T10:19:27.047Z,3.20
2018-12-09T10:21:53.456Z,3.87
2018-12-09T10:24:27.287Z,3.30
2018-12-09T10:26:53.584Z,5.30
2018-12-09T10:29:20.100Z,4.40
2018-12-09T10:31:46.440Z,3.10
2018-12-09T10:34:13.806Z,1.93
2018-12-09T10:36:41.081Z,3.67
2018-12-09T10:39:08.405Z,3.40
2018-12-09T10:41:34.590Z,3.77
2018-12-09T10:44:00.981Z,2.67
2018-12-09T10:46:27.304Z,1.60
2018-12-09T10:48:53.431Z,4.20
2018-12-09T10:51:19.454Z,3.53
2018-12-09T10:53:45.716Z,2.33
2018-12-09T10:56:12.218Z,3.30
2018-12-09T10:58:38.263Z,2.10
2018-12-09T11:01:05.795Z,1.77
2018-12-09T11:03:32.393Z,2.33
2018-12-09T11:05:58.667Z,2.03
2018-12-09T11:08:24.896Z,2.80
2018-12-09T11:10:51.019Z,2.37
2018-12-09T11:13:18.202Z,3.40
2018-12-09T11:15:47.774Z,2.23
2018-12-09T11:18:14.020Z,2.00
2018-12-09T11:20:40.845Z,4.27
2018-12-09T11:23:07.159Z,4.70
2018-12-09T11:25:33.466Z,2.60
2018-12-09T11:27:59.974Z,2.70
2018-12-09T11:30:28.349Z,3.23
2018-12-09T11:32:54.552Z,2.70
2018-12-09T11:35:21.153Z,3.40
2018-12-09T11:37:48.524Z,3.93
2018-12-09T11:40:14.706Z,3.43
2018-12-09T11:42:45.974Z,2.87
2018-12-09T11:45:13.692Z,4.57
2018-12-09T11:47:39.907Z,2.73
2018-12-09T11:50:07.248Z,4.50
2018-12-09T11:52:33.448Z,3.10
2018-12-09T11:54:59.680Z,4.13
2018-12-09T11:57:29.824Z,4.07
2018-12-09T11:59:57.183Z,2.63
2018-12-09T12:02:25.455Z,3.47
2018-12-09T12:04:52.740Z,3.07
2018-12-09T12:07:20.125Z,3.37
2018-12-09T12:09:46.730Z,3.53
2018-12-09T12:12:13.164Z,2.37
2018-12-09T12:14:50.955Z,3.10
2018-12-09T12:17:17.220Z,3.90
2018-12-09T12:19:43.599Z,2.93
2018-12-09T12:22:09.974Z,4.13
2018-12-09T12:24:36.127Z,4.13
2018-12-09T12:27:02.561Z,3.63
2018-12-09T12:29:28.860Z,4.03
2018-12-09T12:31:55.175Z,4.40
2018-12-09T12:34:22.453Z,2.67
2018-12-09T12:36:48.658Z,4.20
2018-12-09T12:39:15.282Z,3.07
2018-12-09T12:41:42.460Z,2.27
2018-12-09T12:44:10.463Z,3.40
2018-12-09T12:46:43.183Z,5.03
2018-12-09T12:49:09.438Z,2.10
2018-12-09T12:51:35.677Z,2.10
2018-12-09T12:54:01.956Z,3.00
2018-12-09T12:56:30.277Z,2.50
2018-12-09T12:58:56.610Z,2.77
2018-12-09T13:01:22.998Z,1.67
2018-12-09T13:03:49.418Z,2.70
2018-12-09T13:06:16.053Z,2.80
2018-12-09T13:08:42.390Z,3.30
2018-12-09T13:11:08.592Z,2.03
2018-12-09T13:13:34.895Z,3.47
2018-12-09T13:16:01.293Z,4.30
2018-12-09T13:18:29.758Z,3.10
2018-12-09T13:20:56.086Z,7.90
2018-12-09T13:23:24.423Z,2.87
2018-12-09T13:25:50.943Z,5.87
2018-12-09T13:28:18.508Z,3.50
2018-12-09T13:30:48.019Z,7.40
2018-12-09T13:33:14.292Z,3.13
2018-12-09T13:35:41.382Z,5.03
2018-12-09T13:38:07.698Z,4.93
2018-12-09T13:40:35.117Z,4.30
2018-12-09T13:43:02.101Z,3.07
2018-12-09T13:45:29.868Z,3.97
2018-12-09T13:47:56.742Z,3.43
2018-12-09T13:50:23.775Z,2.27
2018-12-09T13:52:50.288Z,2.90
2018-12-09T13:55:16.574Z,5.33
2018-12-09T13:57:42.848Z,3.13
2018-12-09T14:00:09.279Z,2.50
2018-12-09T14:02:36.917Z,3.23
2018-12-09T14:05:04.200Z,2.40
2018-12-09T14:07:30.894Z,2.60
2018-12-09T14:09:57.148Z,2.80
2018-12-09T14:12:27.632Z,2.80
2018-12-09T14:14:54.311Z,5.27
2018-12-09T14:17:20.645Z,3.00
2018-12-09T14:19:48.036Z,2.57
2018-12-09T14:22:16.179Z,5.17
2018-12-09T14:24:46.076Z,2.87
2018-12-09T14:27:14.929Z,2.83
2018-12-09T14:29:41.381Z,5.90
2018-12-09T14:32:08.071Z,3.87
2018-12-09T14:34:34.393Z,4.50
2018-12-09T14:37:00.884Z,3.90
2018-12-09T14:39:28.282Z,5.13
2018-12-09T14:41:56.692Z,2.83
2018-12-09T14:44:23.170Z,2.63
2018-12-09T14:46:51.810Z,3.00
2018-12-09T14:49:18.340Z,2.80
2018-12-09T14:51:46.959Z,3.10
2018-12-09T14:54:14.602Z,3.33
2018-12-09T14:56:42.890Z,3.00
2018-12-09T14:59:12.348Z,3.20
2018-12-09T15:01:41.959Z,4.00
2018-12-09T15:04:08.662Z,2.83
2018-12-09T15:06:36.915Z,5.60
2018-12-09T15:09:05.107Z,3.00
2018-12-09T15:11:31.808Z,6.40
2018-12-09T15:13:57.919Z,5.47
2018-12-09T15:16:24.236Z,4.20
2018-12-09T15:18:51.950Z,3.07
2018-12-09T15:21:19.885Z,3.50
2018-12-09T15:23:49.860Z,3.80
2018-12-09T15:26:17.596Z,5.67
2018-12-09T15:28:45.816Z,2.57
2018-12-09T15:31:12.763Z,4.67
2018-12-09T15:33:39.498Z,3.30
2018-12-09T15:36:05.853Z,3.53
2018-12-09T15:38:32.057Z,3.73
2018-12-09T15:40:58.648Z,5.53
2018-12-09T15:43:25.591Z,6.50
2018-12-09T15:45:53.885Z,5.10
2018-12-09T15:48:20.126Z,6.70
2018-12-09T15:50:47.228Z,7.10
2018-12-09T15:53:13.699Z,5.20
2018-12-09T15:55:40.243Z,13.47
2018-12-09T15:58:07.096Z,7.67
2018-12-09T16:00:35.114Z,6.73
2018-12-09T16:03:02.005Z,3.70
2018-12-09T16:05:37.431Z,5.23
2018-12-09T16:08:04.446Z,4.33
2018-12-09T16:10:31.838Z,9.63
2018-12-09T16:12:58.265Z,4.07
2018-12-09T16:15:28.982Z,3.80
2018-12-09T16:17:55.423Z,3.33
2018-12-09T16:20:24.210Z,4.97
2018-12-09T16:22:55.716Z,3.93
2018-12-09T16:25:23.818Z,6.83
2018-12-09T16:27:51.542Z,5.13
2018-12-09T16:30:18.923Z,5.47
2018-12-09T16:32:46.718Z,24.60
2018-12-09T16:35:16.110Z,8.70
2018-12-09T16:37:43.991Z,3.70
2018-12-09T16:40:13.845Z,6.50
2018-12-09T16:42:41.141Z,4.13
2018-12-09T16:45:08.799Z,5.13
2018-12-09T16:47:43.116Z,4.47
2018-12-09T16:50:10.553Z,2.93
2018-12-09T16:52:39.541Z,4.37
2018-12-09T16:55:05.989Z,5.53
2018-12-09T16:57:32.349Z,4.67
2018-12-09T17:00:01.993Z,7.50
2018-12-09T17:02:30.135Z,3.60
2018-12-09T17:04:56.568Z,6.00
2018-12-09T17:07:24.650Z,4.33
2018-12-09T17:09:51.344Z,5.67
2018-12-09T17:12:23.337Z,5.40
2018-12-09T17:14:49.557Z,5.73
2018-12-09T17:17:15.923Z,3.83
2018-12-09T17:19:42.831Z,5.03
2018-12-09T17:22:09.072Z,9.67
2018-12-09T17:24:35.388Z,8.37
2018-12-09T17:27:01.672Z,4.10
2018-12-09T17:29:27.803Z,6.17
2018-12-09T17:31:54.044Z,6.13
2018-12-09T17:34:20.649Z,8.37
2018-12-09T17:36:50.438Z,5.33
2018-12-09T17:39:17.682Z,7.93
2018-12-09T17:41:44.025Z,4.10
2018-12-09T17:44:10.363Z,5.43
2018-12-09T17:46:37.873Z,6.40
2018-12-09T17:49:04.450Z,7.07
2018-12-09T17:51:30.819Z,7.67
2018-12-09T17:53:59.273Z,4.97
2018-12-09T17:56:28.267Z,4.90
2018-12-09T17:58:56.458Z,4.23
2018-12-09T18:01:22.762Z,7.20
2018-12-09T18:03:51.123Z,5.37
2018-12-09T18:06:19.418Z,4.10
2018-12-09T18:08:46.930Z,4.80
2018-12-09T18:11:15.889Z,8.43
2018-12-09T18:13:42.375Z,9.03
2018-12-09T18:16:08.918Z,9.20
2018-12-09T18:18:36.257Z,6.63
2018-12-09T18:21:02.982Z,15.50
2018-12-09T18:23:29.752Z,6.60
2018-12-09T18:25:56.223Z,7.63
2018-12-09T18:28:27.315Z,7.60
2018-12-09T18:30:55.318Z,6.97
2018-12-09T18:33:21.803Z,5.07
2018-12-09T18:35:49.000Z,7.23
2018-12-09T18:38:15.431Z,4.80
2018-12-09T18:40:43.678Z,7.53
2018-12-09T18:43:13.277Z,5.27
2018-12-09T18:45:40.586Z,5.50
2018-12-09T18:48:07.127Z,6.20
2018-12-09T18:50:34.797Z,8.90
2018-12-09T18:53:01.677Z,5.40
2018-12-09T18:55:28.651Z,5.50
2018-12-09T18:57:55.455Z,5.77
2018-12-09T19:00:22.325Z,11.47
2018-12-09T19:02:48.777Z,7.40
2018-12-09T19:05:18.860Z,7.83
2018-12-09T19:07:46.101Z,6.77
2018-12-09T19:10:14.886Z,8.90
2018-12-09T19:12:41.845Z,6.27
2018-12-09T19:15:10.459Z,6.73
2018-12-09T19:17:36.946Z,12.17
2018-12-09T19:20:03.716Z,11.00
2018-12-09T19:22:31.057Z,6.87
2018-12-09T19:24:57.730Z,7.57
2018-12-09T19:27:24.623Z,10.90
2018-12-09T19:29:52.053Z,12.37
2018-12-09T19:32:18.954Z,9.23
2018-12-09T19:34:45.463Z,6.83
2018-12-09T19:37:13.798Z,10.10
2018-12-09T19:39:40.382Z,7.60
2018-12-09T19:42:10.714Z,12.40
2018-12-09T19:44:37.173Z,7.70
2018-12-09T19:47:03.665Z,5.93
2018-12-09T19:49:30.065Z,11.17
2018-12-09T19:51:56.508Z,9.90
2018-12-09T19:54:22.866Z,7.27
2018-12-09T19:56:49.954Z,12.43
2018-12-09T19:59:16.861Z,19.70
2018-12-09T20:01:44.336Z,12.73
2018-12-09T20:04:11.779Z,10.10
2018-12-09T20:06:38.431Z,7.47
2018-12-09T20:09:05.026Z,7.90
2018-12-09T20:11:31.239Z,7.27
2018-12-09T20:13:57.648Z,7.73
2018-12-09T20:16:24.828Z,9.63
2018-12-09T20:18:51.208Z,7.40
2018-12-09T20:21:18.534Z,6.10
2018-12-09T20:23:45.496Z,6.50
2018-12-09T20:26:11.955Z,7.67
2018-12-09T20:28:39.456Z,5.90
2018-12-09T20:31:06.673Z,7.57
2018-12-09T20:33:32.885Z,5.80
2018-12-09T20:36:00.598Z,6.23
2018-12-09T20:38:28.106Z,5.03
2018-12-09T20:40:54.692Z,6.83
2018-12-09T20:43:20.875Z,7.87
2018-12-09T20:45:47.218Z,4.80
2018-12-09T20:48:13.881Z,6.57
2018-12-09T20:50:40.560Z,6.57
2018-12-09T20:53:08.301Z,11.50
2018-12-09T20:55:35.385Z,11.33
2018-12-09T20:58:02.570Z,6.03
2018-12-09T21:00:30.152Z,8.53
2018-12-09T21:02:56.457Z,4.23
2018-12-09T21:05:23.999Z,5.53
2018-12-09T21:07:50.569Z,5.90
2018-12-09T21:10:16.972Z,8.80
2018-12-09T21:12:43.378Z,8.43
2018-12-09T21:15:09.746Z,6.03
2018-12-09T21:17:42.550Z,5.20
2018-12-09T21:20:08.958Z,6.30
2018-12-09T21:22:37.880Z,8.30
2018-12-09T21:25:04.384Z,4.00
2018-12-09T21:27:38.762Z,5.17
2018-12-09T21:30:05.155Z,5.93
2018-12-09T21:32:31.372Z,8.23
2018-12-09T21:34:58.839Z,8.30
2018-12-09T21:37:25.949Z,3.80
2018-12-09T21:39:52.354Z,10.53
2018-12-09T21:42:18.948Z,7.90
2018-12-09T21:44:45.827Z,7.10
2018-12-09T21:47:12.114Z,6.13
2018-12-09T21:49:38.635Z,8.87
2018-12-09T21:52:09.424Z,4.77
2018-12-09T21:54:36.098Z,10.80
2018-12-09T21:57:10.522Z,10.03
2018-12-09T21:59:36.966Z,7.60
2018-12-09T22:02:04.524Z,14.77
2018-12-09T22:04:31.198Z,11.13
2018-12-09T22:06:57.816Z,5.93
2018-12-09T22:09:24.119Z,8.63
2018-12-09T22:11:50.348Z,14.27
2018-12-09T22:14:17.066Z,8.40
2018-12-09T22:16:44.041Z,8.60
2018-12-09T22:19:10.955Z,7.97
2018-12-09T22:21:37.248Z,6.53
2018-12-09T22:24:04.537Z,8.07
2018-12-09T22:26:31.029Z,13.75
2018-12-09T22:28:57.211Z,7.73
2018-12-09T22:31:23.445Z,12.73
2018-12-09T22:33:50.034Z,15.13
2018-12-09T22:36:16.652Z,6.53
2018-12-09T22:38:42.969Z,7.47
2018-12-09T22:41:09.057Z,8.00
2018-12-09T22:43:36.630Z,10.00
2018-12-09T22:49:00.055Z,7.60
2018-12-09T22:51:26.353Z,13.30
2018-12-09T22:53:52.667Z,17.03
2018-12-09T22:56:19.164Z,9.57
2018-12-09T22:58:46.910Z,7.60
2018-12-09T23:01:18.380Z,8.17
2018-12-09T23:03:44.592Z,8.80
2018-12-09T23:06:10.968Z,15.37
2018-12-09T23:08:37.360Z,11.10
2018-12-09T23:11:03.803Z,10.13
2018-12-09T23:13:30.056Z,6.90
2018-12-09T23:16:06.043Z,10.20
2018-12-09T23:18:36.061Z,13.77
2018-12-09T23:21:02.307Z,11.57
2018-12-09T23:23:28.538Z,6.00
2018-12-09T23:25:54.834Z,9.03
2018-12-09T23:28:21.007Z,7.83
2018-12-09T23:30:47.346Z,14.73
2018-12-09T23:33:13.711Z,11.50
2018-12-09T23:35:39.810Z,9.70
2018-12-09T23:38:06.116Z,8.53
2018-12-09T23:40:32.474Z,9.83
2018-12-09T23:42:58.688Z,13.23
2018-12-09T23:45:25.038Z,11.57
2018-12-09T23:47:51.334Z,8.50
2018-12-09T23:50:17.793Z,10.03
2018-12-09T23:52:43.883Z,10.90
2018-12-09T23:55:10.233Z,10.03
2018-12-09T23:57:36.535Z,7.97
